createdAt,value
2023-05-23T00:01:01.926Z,12.55
2023-05-23T00:03:28.865Z,11.60
2023-05-23T00:05:56.558Z,11.48
2023-05-23T00:08:23.316Z,12.52
2023-05-23T00:10:49.839Z,12.00
2023-05-23T00:13:16.297Z,11.85
2023-05-23T00:15:42.948Z,11.95
2023-05-23T00:18:13.228Z,11.95
2023-05-23T00:20:43.192Z,12.30
2023-05-23T00:23:10.159Z,10.40
2023-05-23T00:25:37.077Z,11.98
2023-05-23T00:28:04.126Z,10.95
2023-05-23T00:30:32.008Z,10.68
2023-05-23T00:32:59.015Z,8.88
2023-05-23T00:35:25.933Z,7.97
2023-05-23T00:37:52.705Z,8.18
2023-05-23T00:40:19.237Z,7.50
2023-05-23T00:42:46.486Z,7.22
2023-05-23T00:45:15.573Z,6.90
2023-05-23T00:47:42.634Z,6.32
2023-05-23T00:50:12.330Z,6.72
2023-05-23T00:52:39.338Z,7.60
2023-05-23T00:55:06.380Z,6.38
2023-05-23T00:57:34.856Z,6.47
2023-05-23T01:00:02.026Z,6.40
2023-05-23T01:02:30.173Z,6.63
2023-05-23T01:04:56.757Z,7.43
2023-05-23T01:07:23.275Z,7.57
2023-05-23T01:09:50.074Z,7.97
2023-05-23T01:12:49.564Z,7.05
2023-05-23T01:15:18.467Z,6.85
2023-05-23T01:17:47.505Z,7.05
2023-05-23T01:20:21.598Z,7.32
2023-05-23T01:22:57.035Z,7.88
2023-05-23T01:25:42.008Z,8.13
2023-05-23T01:28:11.849Z,8.07
2023-05-23T01:30:40.995Z,9.27
2023-05-23T01:33:09.272Z,9.85
2023-05-23T01:35:36.888Z,9.20
2023-05-23T01:38:03.435Z,9.00
2023-05-23T01:40:29.960Z,8.68
2023-05-23T01:42:57.447Z,9.13
2023-05-23T01:45:26.665Z,9.15
2023-05-23T01:47:54.108Z,8.70
2023-05-23T01:50:20.778Z,8.65
2023-05-23T01:52:47.656Z,8.98
2023-05-23T01:55:18.716Z,8.93
2023-05-23T01:57:49.602Z,9.10
2023-05-23T02:00:16.648Z,9.50
2023-05-23T02:02:43.193Z,9.50
2023-05-23T02:05:11.067Z,9.45
2023-05-23T02:07:37.591Z,9.27
2023-05-23T02:10:06.556Z,9.95
2023-05-23T02:12:32.992Z,10.38
2023-05-23T02:14:59.451Z,9.98
2023-05-23T02:17:26.254Z,8.95
2023-05-23T02:19:52.857Z,10.07
2023-05-23T02:22:23.502Z,9.23
2023-05-23T02:24:50.221Z,9.07
2023-05-23T02:27:16.682Z,9.30
2023-05-23T02:29:43.140Z,9.48
2023-05-23T02:32:09.667Z,9.27
2023-05-23T02:34:36.131Z,9.27
2023-05-23T02:37:02.587Z,9.18
2023-05-23T02:39:29.071Z,9.70
2023-05-23T02:41:55.506Z,10.43
2023-05-23T02:44:22.003Z,10.18
2023-05-23T02:46:48.475Z,10.80
2023-05-23T02:49:14.927Z,10.75
2023-05-23T02:51:41.400Z,11.00
2023-05-23T02:54:07.908Z,12.07
2023-05-23T02:56:34.576Z,11.60
2023-05-23T02:59:01.026Z,13.57
2023-05-23T03:01:27.610Z,12.98
2023-05-23T03:03:54.185Z,14.88
2023-05-23T03:06:22.661Z,13.48
2023-05-23T03:08:49.317Z,14.75
2023-05-23T03:11:16.481Z,14.82
2023-05-23T03:13:43.080Z,14.65
2023-05-23T03:16:09.708Z,16.42
2023-05-23T03:18:36.375Z,17.70
2023-05-23T03:21:03.724Z,17.42
2023-05-23T03:23:30.353Z,16.20
2023-05-23T03:25:56.944Z,17.98
2023-05-23T03:28:23.538Z,18.63
2023-05-23T03:30:50.135Z,17.45
2023-05-23T03:33:16.788Z,18.23
2023-05-23T03:35:44.758Z,18.27
2023-05-23T03:38:11.344Z,17.98
2023-05-23T03:40:37.934Z,16.15
2023-05-23T03:43:06.271Z,17.88
2023-05-23T03:45:33.307Z,17.55
2023-05-23T03:48:00.403Z,16.83
2023-05-23T03:50:27.635Z,16.20
2023-05-23T03:52:54.596Z,16.00
2023-05-23T03:55:22.596Z,14.93
2023-05-23T03:57:49.887Z,17.48
2023-05-23T04:00:16.793Z,15.18
2023-05-23T04:02:44.068Z,15.10
2023-05-23T04:05:10.976Z,16.85
2023-05-23T04:07:37.695Z,15.23
2023-05-23T04:10:04.865Z,14.60
2023-05-23T04:12:31.705Z,14.15
2023-05-23T04:14:58.310Z,14.40
2023-05-23T04:17:25.888Z,14.40
2023-05-23T04:19:52.559Z,13.88
2023-05-23T04:22:19.078Z,12.55
2023-05-23T04:24:45.640Z,12.40
2023-05-23T04:27:13.627Z,12.35
2023-05-23T04:29:40.147Z,14.05
2023-05-23T04:32:07.046Z,12.48
2023-05-23T04:34:34.054Z,11.80
2023-05-23T04:37:03.989Z,12.38
2023-05-23T04:39:30.580Z,11.88
2023-05-23T04:41:57.758Z,11.32
2023-05-23T04:44:24.290Z,12.07
2023-05-23T04:46:50.776Z,10.90
2023-05-23T04:49:17.302Z,11.32
2023-05-23T04:51:43.965Z,11.45
2023-05-23T04:54:10.556Z,11.52
2023-05-23T04:56:37.181Z,11.85
2023-05-23T04:59:03.636Z,12.25
2023-05-23T05:01:31.403Z,12.48
2023-05-23T05:03:57.936Z,11.73
2023-05-23T05:06:24.789Z,12.05
2023-05-23T05:08:51.321Z,11.65
2023-05-23T05:11:17.920Z,12.27
2023-05-23T05:13:44.427Z,12.13
2023-05-23T05:16:11.017Z,11.32
2023-05-23T05:18:37.579Z,12.45
2023-05-23T05:21:04.110Z,11.57
2023-05-23T05:23:31.660Z,14.60
2023-05-23T05:25:58.136Z,13.02
2023-05-23T05:28:24.968Z,15.20
2023-05-23T05:30:54.237Z,14.60
2023-05-23T05:33:24.950Z,15.57
2023-05-23T05:35:51.848Z,14.88
2023-05-23T05:38:18.339Z,15.75
2023-05-23T05:40:45.292Z,14.68
2023-05-23T05:43:11.753Z,16.15
2023-05-23T05:45:38.262Z,16.05
2023-05-23T05:48:04.829Z,15.48
2023-05-23T05:50:31.425Z,15.32
2023-05-23T05:52:57.977Z,16.30
2023-05-23T05:55:24.440Z,15.20
2023-05-23T05:57:50.984Z,14.75
2023-05-23T06:00:19.167Z,15.35
2023-05-23T06:02:51.347Z,15.45
2023-05-23T06:05:17.981Z,14.70
2023-05-23T06:07:44.524Z,14.60
2023-05-23T06:10:13.693Z,15.10
2023-05-23T06:12:40.398Z,16.45
2023-05-23T06:15:07.569Z,16.48
2023-05-23T06:17:34.043Z,15.75
2023-05-23T06:20:00.574Z,15.98
2023-05-23T06:22:27.180Z,16.67
2023-05-23T06:24:53.749Z,16.65
2023-05-23T06:27:20.237Z,17.42
2023-05-23T06:29:46.765Z,18.73
2023-05-23T06:32:13.260Z,17.30
2023-05-23T06:34:41.008Z,17.73
2023-05-23T06:37:07.557Z,17.20
2023-05-23T06:39:34.039Z,13.82
2023-05-23T06:42:01.119Z,15.13
2023-05-23T06:44:27.604Z,14.32
2023-05-23T06:46:58.745Z,14.10
2023-05-23T06:49:25.484Z,13.85
2023-05-23T06:51:52.374Z,12.68
2023-05-23T06:54:19.405Z,9.85
2023-05-23T06:56:46.264Z,10.63
2023-05-23T06:59:12.864Z,13.85
2023-05-23T07:01:39.669Z,11.68
2023-05-23T07:04:06.436Z,13.23
2023-05-23T07:06:33.082Z,13.77
2023-05-23T07:08:59.605Z,13.27
2023-05-23T07:11:26.484Z,14.65
2023-05-23T07:13:52.979Z,15.55
2023-05-23T07:16:19.549Z,15.02
2023-05-23T07:18:46.266Z,15.73
2023-05-23T07:21:12.742Z,15.35
2023-05-23T07:23:40.880Z,15.27
2023-05-23T07:26:09.685Z,14.82
2023-05-23T07:28:37.574Z,14.27
2023-05-23T07:31:04.345Z,14.05
2023-05-23T07:33:30.971Z,15.57
2023-05-23T07:35:57.471Z,14.13
2023-05-23T07:38:23.928Z,13.50
2023-05-23T07:40:59.232Z,12.80
2023-05-23T07:43:36.950Z,12.05
2023-05-23T07:46:03.566Z,11.98
2023-05-23T07:48:30.174Z,12.52
2023-05-23T07:50:56.652Z,13.30
2023-05-23T07:53:23.096Z,12.50
2023-05-23T07:55:49.668Z,12.57
2023-05-23T07:58:16.233Z,10.93
2023-05-23T08:00:44.283Z,10.90
2023-05-23T08:03:11.809Z,13.07
2023-05-23T08:05:38.397Z,10.30
2023-05-23T08:08:04.900Z,9.50
2023-05-23T08:10:31.396Z,10.00
2023-05-23T08:13:00.528Z,9.63
2023-05-23T08:15:27.036Z,10.45
2023-05-23T08:17:56.976Z,10.10
2023-05-23T08:20:30.475Z,9.38
2023-05-23T08:22:58.935Z,10.98
2023-05-23T08:25:26.188Z,10.27
2023-05-23T08:27:53.427Z,10.77
2023-05-23T08:30:23.045Z,9.45
2023-05-23T08:32:49.639Z,9.15
2023-05-23T08:35:16.108Z,8.95
2023-05-23T08:37:43.039Z,7.10
2023-05-23T08:40:14.341Z,8.23
2023-05-23T08:42:40.962Z,8.00
2023-05-23T08:45:08.214Z,8.00
2023-05-23T08:47:37.807Z,8.25
2023-05-23T08:50:08.167Z,7.07
2023-05-23T08:52:35.794Z,8.07
2023-05-23T08:55:02.715Z,8.27
2023-05-23T08:57:30.707Z,7.85
2023-05-23T08:59:57.715Z,9.27
2023-05-23T09:02:24.888Z,10.23
2023-05-23T09:04:51.460Z,10.30
2023-05-23T09:07:19.059Z,8.77
2023-05-23T09:09:45.572Z,9.63
2023-05-23T09:12:13.472Z,9.50
2023-05-23T09:14:41.501Z,10.45
2023-05-23T09:17:07.949Z,12.80
2023-05-23T09:19:34.521Z,13.05
2023-05-23T09:22:02.818Z,13.10
2023-05-23T09:24:36.826Z,10.82
2023-05-23T09:27:05.427Z,10.73
2023-05-23T09:29:31.924Z,11.15
2023-05-23T09:32:18.065Z,10.98
2023-05-23T09:34:50.761Z,14.27
2023-05-23T09:37:19.341Z,12.10
2023-05-23T09:39:47.534Z,11.68
2023-05-23T09:42:20.837Z,11.82
2023-05-23T09:44:47.350Z,14.15
2023-05-23T09:47:16.144Z,14.63
2023-05-23T09:49:46.521Z,12.88
2023-05-23T09:52:13.572Z,12.45
2023-05-23T09:54:40.669Z,12.52
2023-05-23T09:57:10.729Z,11.60
2023-05-23T09:59:40.305Z,10.85
2023-05-23T10:02:08.353Z,9.38
2023-05-23T10:04:35.631Z,10.20
2023-05-23T10:07:11.748Z,10.57
2023-05-23T10:09:40.016Z,11.07
2023-05-23T10:12:36.995Z,10.93
2023-05-23T10:15:05.646Z,10.77
2023-05-23T10:17:47.451Z,10.00
2023-05-23T10:20:16.397Z,9.55
2023-05-23T10:22:43.326Z,10.00
2023-05-23T10:25:10.496Z,9.88
2023-05-23T10:27:40.683Z,10.95
2023-05-23T10:30:07.995Z,8.55
2023-05-23T10:32:36.219Z,8.60
2023-05-23T10:35:11.172Z,10.65
2023-05-23T10:37:46.974Z,8.32
2023-05-23T10:40:21.129Z,7.45
2023-05-23T10:43:03.217Z,7.38
2023-05-23T10:45:29.894Z,9.25
2023-05-23T10:47:56.560Z,10.45
2023-05-23T10:50:34.312Z,6.88
2023-05-23T10:53:05.542Z,7.35
2023-05-23T10:55:33.505Z,7.03
2023-05-23T10:58:13.299Z,7.55
2023-05-23T11:00:40.097Z,7.10
2023-05-23T11:03:08.978Z,6.97
2023-05-23T11:05:38.595Z,7.35
2023-05-23T11:08:09.089Z,7.90
2023-05-23T11:11:00.784Z,7.65
2023-05-23T11:13:53.048Z,8.35
2023-05-23T11:16:41.410Z,7.07
2023-05-23T11:19:20.072Z,6.55
2023-05-23T11:21:50.054Z,7.18
2023-05-23T11:24:17.639Z,7.13
2023-05-23T11:27:04.056Z,6.20
2023-05-23T11:29:30.857Z,6.20
2023-05-23T11:31:57.405Z,6.03
2023-05-23T11:34:27.190Z,6.18
2023-05-23T11:36:55.610Z,6.85
2023-05-23T11:39:22.738Z,6.18
2023-05-23T11:42:02.433Z,6.10
2023-05-23T11:44:29.241Z,6.03
2023-05-23T11:47:06.134Z,5.75
2023-05-23T11:49:35.714Z,5.80
2023-05-23T11:52:02.862Z,5.65
2023-05-23T11:54:29.721Z,6.15
2023-05-23T11:56:56.707Z,6.20
2023-05-23T11:59:25.998Z,9.13
2023-05-23T12:01:53.242Z,8.13
2023-05-23T12:04:19.798Z,7.28
2023-05-23T12:06:48.437Z,6.45
2023-05-23T12:09:15.248Z,5.45
2023-05-23T12:11:42.675Z,6.07
2023-05-23T12:14:14.481Z,5.15
2023-05-23T12:16:47.347Z,5.20
2023-05-23T12:19:14.960Z,5.78
2023-05-23T12:21:45.656Z,5.55
2023-05-23T12:24:19.632Z,4.93
2023-05-23T12:26:54.066Z,5.60
2023-05-23T12:29:22.410Z,7.25
2023-05-23T12:31:50.732Z,5.70
2023-05-23T12:34:17.596Z,5.28
2023-05-23T12:36:49.430Z,6.45
2023-05-23T12:39:16.505Z,5.00
2023-05-23T12:41:44.487Z,6.35
2023-05-23T12:44:11.518Z,6.00
2023-05-23T12:46:38.019Z,6.78
2023-05-23T12:49:05.808Z,5.40
2023-05-23T12:51:32.322Z,6.50
2023-05-23T12:53:59.097Z,6.07
2023-05-23T12:56:26.573Z,4.97
2023-05-23T12:58:53.966Z,5.88
2023-05-23T13:01:20.869Z,5.50
2023-05-23T13:03:47.521Z,5.60
2023-05-23T13:06:14.097Z,5.93
2023-05-23T13:08:40.576Z,5.00
2023-05-23T13:11:07.051Z,5.65
2023-05-23T13:13:33.832Z,4.80
2023-05-23T13:16:00.830Z,4.85
2023-05-23T13:18:27.301Z,6.05
2023-05-23T13:20:53.828Z,4.88
2023-05-23T13:23:20.791Z,4.97
2023-05-23T13:25:47.415Z,4.93
2023-05-23T13:28:14.034Z,5.90
2023-05-23T13:30:40.649Z,5.43
2023-05-23T13:33:07.497Z,5.03
2023-05-23T13:35:34.101Z,5.22
2023-05-23T13:38:00.616Z,6.45
2023-05-23T13:40:27.110Z,5.30
2023-05-23T13:42:53.677Z,5.43
2023-05-23T13:45:22.417Z,4.88
2023-05-23T13:47:49.036Z,5.05
2023-05-23T13:50:15.985Z,4.82
2023-05-23T13:52:45.663Z,4.95
2023-05-23T13:55:13.950Z,5.15
2023-05-23T13:57:40.432Z,5.43
2023-05-23T14:00:08.828Z,4.40
2023-05-23T14:02:35.431Z,4.13
2023-05-23T14:05:01.981Z,4.20
2023-05-23T14:07:28.444Z,4.50
2023-05-23T14:09:55.037Z,4.38
2023-05-23T14:12:21.480Z,4.18
2023-05-23T14:14:47.940Z,3.70
2023-05-23T14:17:17.580Z,4.65
2023-05-23T14:19:44.462Z,4.60
2023-05-23T14:22:11.423Z,3.90
2023-05-23T14:24:37.994Z,4.53
2023-05-23T14:27:04.898Z,4.00
2023-05-23T14:29:31.665Z,4.05
2023-05-23T14:31:59.967Z,4.38
2023-05-23T14:34:26.722Z,4.15
2023-05-23T14:36:53.745Z,4.25
2023-05-23T14:39:20.252Z,4.03
2023-05-23T14:41:46.877Z,4.38
2023-05-23T14:44:13.349Z,4.07
2023-05-23T14:46:39.932Z,4.38
2023-05-23T14:49:06.424Z,4.55
2023-05-23T14:51:46.144Z,4.15
2023-05-23T14:54:16.989Z,5.18
2023-05-23T14:56:43.523Z,4.82
2023-05-23T14:59:09.976Z,4.22
2023-05-23T15:01:39.392Z,3.60
2023-05-23T15:04:09.132Z,4.15
2023-05-23T15:06:37.096Z,4.00
2023-05-23T15:09:04.260Z,4.18
2023-05-23T15:11:32.077Z,4.13
2023-05-23T15:13:59.587Z,4.03
2023-05-23T15:16:26.090Z,4.72
2023-05-23T15:18:52.652Z,4.20
2023-05-23T15:21:19.148Z,4.40
2023-05-23T15:23:46.131Z,3.60
2023-05-23T15:26:12.610Z,4.10
2023-05-23T15:28:39.066Z,3.47
2023-05-23T15:31:05.525Z,4.35
2023-05-23T15:33:32.249Z,4.43
2023-05-23T15:35:59.386Z,4.25
2023-05-23T15:38:25.932Z,4.15
2023-05-23T15:40:54.561Z,3.50
2023-05-23T15:43:21.156Z,4.45
2023-05-23T15:45:49.858Z,3.70
2023-05-23T15:48:16.509Z,5.65
2023-05-23T15:50:43.853Z,5.78
2023-05-23T15:53:10.633Z,4.07
2023-05-23T15:55:39.781Z,3.38
2023-05-23T15:58:07.867Z,3.40
2023-05-23T16:00:34.328Z,4.15
2023-05-23T16:03:00.999Z,3.92
2023-05-23T16:05:27.559Z,4.03
2023-05-23T16:07:54.874Z,4.35
2023-05-23T16:10:21.412Z,4.05
2023-05-23T16:12:47.841Z,4.40
2023-05-23T16:15:14.262Z,4.13
2023-05-23T16:17:40.738Z,4.38
2023-05-23T16:20:08.097Z,3.05
2023-05-23T16:22:34.567Z,3.35
2023-05-23T16:25:01.021Z,4.18
2023-05-23T16:27:27.589Z,3.08
2023-05-23T16:29:54.066Z,3.30
2023-05-23T16:32:20.585Z,3.80
2023-05-23T16:34:50.278Z,3.83
2023-05-23T16:37:20.052Z,3.25
2023-05-23T16:39:46.801Z,3.80
2023-05-23T16:42:13.332Z,4.28
2023-05-23T16:44:39.927Z,3.97
2023-05-23T16:47:06.466Z,3.60
2023-05-23T16:49:32.993Z,3.75
2023-05-23T16:51:59.421Z,3.15
2023-05-23T16:54:26.060Z,3.33
2023-05-23T16:56:52.546Z,3.42
2023-05-23T16:59:19.153Z,3.67
2023-05-23T17:01:45.705Z,3.20
2023-05-23T17:04:12.291Z,3.10
2023-05-23T17:06:38.737Z,3.58
2023-05-23T17:09:05.413Z,4.05
2023-05-23T17:11:31.886Z,3.13
2023-05-23T17:13:58.324Z,4.07
2023-05-23T17:16:25.337Z,3.67
2023-05-23T17:18:51.893Z,3.85
2023-05-23T17:21:18.384Z,3.47
2023-05-23T17:23:45.921Z,4.03
2023-05-23T17:26:12.495Z,3.30
2023-05-23T17:28:38.983Z,3.83
2023-05-23T17:31:05.554Z,4.65
2023-05-23T17:33:32.046Z,3.45
2023-05-23T17:35:58.541Z,3.35
2023-05-23T17:38:25.062Z,3.50
2023-05-23T17:40:51.690Z,2.90
2023-05-23T17:43:18.258Z,4.15
2023-05-23T17:45:44.796Z,3.53
2023-05-23T17:48:11.489Z,3.55
2023-05-23T17:50:38.090Z,4.43
2023-05-23T17:53:04.628Z,3.63
2023-05-23T17:55:31.145Z,3.40
2023-05-23T17:57:57.661Z,3.70
2023-05-23T18:00:24.250Z,4.35
2023-05-23T18:02:51.775Z,2.80
2023-05-23T18:05:20.635Z,3.10
2023-05-23T18:07:47.675Z,3.05
2023-05-23T18:10:14.346Z,3.28
2023-05-23T18:12:41.072Z,3.90
2023-05-23T18:15:08.766Z,2.50
2023-05-23T18:17:35.474Z,3.83
2023-05-23T18:20:02.148Z,3.03
2023-05-23T18:22:31.554Z,3.28
2023-05-23T18:24:58.049Z,2.60
2023-05-23T18:27:24.694Z,2.67
2023-05-23T18:29:51.414Z,3.15
2023-05-23T18:32:17.934Z,4.03
2023-05-23T18:34:44.536Z,3.42
2023-05-23T18:37:11.115Z,3.40
2023-05-23T18:39:37.619Z,3.45
2023-05-23T18:42:04.259Z,3.35
2023-05-23T18:44:30.987Z,3.20
2023-05-23T18:46:57.541Z,2.88
2023-05-23T18:49:24.078Z,3.15
2023-05-23T18:51:51.753Z,3.97
2023-05-23T18:54:18.475Z,3.15
2023-05-23T18:56:45.198Z,2.95
2023-05-23T18:59:14.498Z,3.47
2023-05-23T19:01:41.093Z,3.10
2023-05-23T19:04:08.245Z,3.05
2023-05-23T19:06:34.784Z,3.17
2023-05-23T19:09:01.310Z,3.05
2023-05-23T19:11:28.042Z,3.20
2023-05-23T19:13:54.566Z,2.95
2023-05-23T19:16:21.677Z,3.20
2023-05-23T19:18:48.448Z,3.47
2023-05-23T19:21:15.021Z,3.53
2023-05-23T19:23:41.704Z,3.15
2023-05-23T19:26:08.186Z,3.83
2023-05-23T19:28:34.695Z,2.95
2023-05-23T19:31:01.427Z,3.65
2023-05-23T19:33:27.895Z,3.25
2023-05-23T19:35:54.914Z,3.63
2023-05-23T19:38:21.503Z,3.47
2023-05-23T19:40:48.082Z,3.08
2023-05-23T19:43:14.741Z,3.28
2023-05-23T19:45:41.304Z,2.80
2023-05-23T19:48:07.826Z,4.00
2023-05-23T19:50:34.521Z,3.25
2023-05-23T19:53:00.988Z,3.72
2023-05-23T19:55:27.538Z,3.13
2023-05-23T19:57:54.028Z,3.90
2023-05-23T20:00:20.740Z,2.83
2023-05-23T20:02:47.680Z,4.65
2023-05-23T20:05:14.214Z,3.15
2023-05-23T20:07:41.103Z,3.17
2023-05-23T20:10:08.018Z,3.15
2023-05-23T20:12:34.850Z,3.42
2023-05-23T20:15:01.403Z,3.00
2023-05-23T20:17:29.253Z,3.38
2023-05-23T20:19:55.886Z,3.40
2023-05-23T20:22:22.341Z,3.10
2023-05-23T20:24:48.884Z,3.42
2023-05-23T20:27:15.887Z,3.63
2023-05-23T20:29:42.364Z,3.13
2023-05-23T20:32:08.837Z,3.20
2023-05-23T20:34:35.667Z,3.42
2023-05-23T20:37:03.500Z,3.47
2023-05-23T20:39:30.469Z,2.75
2023-05-23T20:41:57.101Z,3.63
2023-05-23T20:44:23.704Z,3.40
2023-05-23T20:46:50.581Z,2.97
2023-05-23T20:49:17.647Z,4.63
2023-05-23T20:51:44.176Z,3.55
2023-05-23T20:54:12.724Z,2.95
2023-05-23T20:56:39.248Z,3.30
2023-05-23T20:59:05.708Z,2.80
2023-05-23T21:01:32.819Z,4.05
2023-05-23T21:03:59.413Z,3.30
2023-05-23T21:06:25.918Z,3.08
2023-05-23T21:08:52.372Z,3.53
2023-05-23T21:11:18.872Z,3.15
2023-05-23T21:13:45.631Z,3.75
2023-05-23T21:16:14.351Z,3.42
2023-05-23T21:18:41.010Z,3.20
2023-05-23T21:21:07.454Z,3.38
2023-05-23T21:23:33.974Z,2.90
2023-05-23T21:26:00.558Z,2.83
2023-05-23T21:28:27.467Z,2.97
2023-05-23T21:30:54.473Z,2.55
2023-05-23T21:33:21.086Z,3.03
2023-05-23T21:35:47.665Z,2.70
2023-05-23T21:38:14.149Z,3.35
2023-05-23T21:40:40.818Z,4.28
2023-05-23T21:43:07.540Z,2.83
2023-05-23T21:45:33.990Z,3.38
2023-05-23T21:48:00.544Z,3.65
2023-05-23T21:50:27.161Z,3.22
2023-05-23T21:52:54.113Z,2.78
2023-05-23T21:55:20.895Z,2.20
2023-05-23T21:57:47.379Z,4.75
2023-05-23T22:00:14.551Z,2.80
2023-05-23T22:02:41.389Z,3.40
2023-05-23T22:05:08.773Z,2.78
2023-05-23T22:07:35.322Z,3.00
2023-05-23T22:10:01.935Z,3.05
2023-05-23T22:12:28.737Z,2.78
2023-05-23T22:14:55.613Z,3.67
2023-05-23T22:17:22.588Z,4.20
2023-05-23T22:19:51.812Z,3.40
2023-05-23T22:22:18.997Z,2.92
2023-05-23T22:24:45.533Z,3.13
2023-05-23T22:27:12.250Z,3.05
2023-05-23T22:29:38.736Z,4.38
2023-05-23T22:32:05.388Z,3.78
2023-05-23T22:34:31.969Z,3.75
2023-05-23T22:37:00.266Z,3.10
2023-05-23T22:39:27.059Z,3.25
2023-05-23T22:41:53.866Z,3.28
2023-05-23T22:44:20.452Z,3.58
2023-05-23T22:46:46.960Z,3.05
2023-05-23T22:49:13.479Z,3.08
2023-05-23T22:51:40.034Z,3.30
2023-05-23T22:54:06.667Z,3.03
2023-05-23T22:56:33.187Z,4.35
2023-05-23T22:58:59.788Z,3.22
2023-05-23T23:01:26.356Z,3.50
2023-05-23T23:03:52.914Z,3.47
2023-05-23T23:06:20.967Z,3.25
2023-05-23T23:08:47.648Z,3.92
2023-05-23T23:11:14.211Z,3.00
2023-05-23T23:13:40.659Z,3.20
2023-05-23T23:16:08.588Z,3.17
2023-05-23T23:18:35.174Z,2.92
2023-05-23T23:21:01.655Z,3.65
2023-05-23T23:23:28.164Z,3.80
2023-05-23T23:25:54.718Z,3.47
2023-05-23T23:28:21.200Z,3.80
2023-05-23T23:30:47.740Z,3.50
2023-05-23T23:33:14.932Z,3.05
2023-05-23T23:35:41.626Z,3.40
2023-05-23T23:38:08.105Z,3.17
2023-05-23T23:40:34.668Z,3.28
2023-05-23T23:43:01.165Z,2.75
2023-05-23T23:45:27.688Z,3.30
2023-05-23T23:47:54.207Z,4.55
2023-05-23T23:50:21.343Z,3.45
2023-05-23T23:52:47.826Z,3.38
2023-05-23T23:55:14.300Z,3.80
2023-05-23T23:57:41.024Z,2.97
